sensor_id;sensor_type;location;lat;lon;timestamp;P1;P2;P0
47081;PMS5003;33066;49.296;14.470;2022-10-01T00:01:10;50;43;
47081;PMS5003;33066;49.296;14.470;2022-10-01T00:03:35;40;40;
47081;PMS5003;33066;49.296;14.470;2022-10-01T00:06:02;42;40;
47081;PMS5003;33066;49.296;14.470;2022-10-01T00:08:26;41;41;
47081;PMS5003;33066;49.296;14.470;2022-10-01T00:10:51;30;29;
47081;PMS5003;33066;49.296;14.470;2022-10-01T00:13:18;52;51;
47081;PMS5003;33066;49.296;14.470;2022-10-01T00:15:42;59;49;
47081;PMS5003;33066;49.296;14.470;2022-10-01T00:18:09;55;54;
47081;PMS5003;33066;49.296;14.470;2022-10-01T00:20:38;54;51;
47081;PMS5003;33066;49.296;14.470;2022-10-01T00:23:00;55;50;
47081;PMS5003;33066;49.296;14.470;2022-10-01T00:25:24;61;57;
47081;PMS5003;33066;49.296;14.470;2022-10-01T00:27:50;60;54;
47081;PMS5003;33066;49.296;14.470;2022-10-01T00:30:15;54;46;
47081;PMS5003;33066;49.296;14.470;2022-10-01T00:32:40;47;44;
47081;PMS5003;33066;49.296;14.470;2022-10-01T00:35:06;61;57;
47081;PMS5003;33066;49.296;14.470;2022-10-01T00:37:31;56;56;
47081;PMS5003;33066;49.296;14.470;2022-10-01T00:39:57;83;73;
47081;PMS5003;33066;49.296;14.470;2022-10-01T00:42:23;57;55;
47081;PMS5003;33066;49.296;14.470;2022-10-01T00:44:48;66;58;
47081;PMS5003;33066;49.296;14.470;2022-10-01T00:47:20;58;47;
47081;PMS5003;33066;49.296;14.470;2022-10-01T00:49:39;68;58;
47081;PMS5003;33066;49.296;14.470;2022-10-01T00:52:06;59;52;
47081;PMS5003;33066;49.296;14.470;2022-10-01T00:54:30;66;58;
47081;PMS5003;33066;49.296;14.470;2022-10-01T00:56:58;70;58;
47081;PMS5003;33066;49.296;14.470;2022-10-01T00:59:19;75;73;
47081;PMS5003;33066;49.296;14.470;2022-10-01T01:01:45;59;58;
47081;PMS5003;33066;49.296;14.470;2022-10-01T01:04:10;67;65;
47081;PMS5003;33066;49.296;14.470;2022-10-01T01:06:36;96;93;
47081;PMS5003;33066;49.296;14.470;2022-10-01T01:09:02;124;118;
47081;PMS5003;33066;49.296;14.470;2022-10-01T01:11:29;187;182;
47081;PMS5003;33066;49.296;14.470;2022-10-01T01:13:54;87;83;
47081;PMS5003;33066;49.296;14.470;2022-10-01T01:16:18;39;33;
47081;PMS5003;33066;49.296;14.470;2022-10-01T01:18:45;34;34;
47081;PMS5003;33066;49.296;14.470;2022-10-01T01:21:11;31;27;
47081;PMS5003;33066;49.296;14.470;2022-10-01T01:26:04;32;30;
47081;PMS5003;33066;49.296;14.470;2022-10-01T01:28:28;41;33;
47081;PMS5003;33066;49.296;14.470;2022-10-01T01:30:54;36;32;
47081;PMS5003;33066;49.296;14.470;2022-10-01T01:33:19;33;29;
47081;PMS5003;33066;49.296;14.470;2022-10-01T01:35:45;20;20;
47081;PMS5003;33066;49.296;14.470;2022-10-01T01:38:12;26;24;
47081;PMS5003;33066;49.296;14.470;2022-10-01T01:40:34;27;23;
47081;PMS5003;33066;49.296;14.470;2022-10-01T01:43:01;33;30;
47081;PMS5003;33066;49.296;14.470;2022-10-01T01:45:26;31;28;
47081;PMS5003;33066;49.296;14.470;2022-10-01T01:47:52;24;23;
47081;PMS5003;33066;49.296;14.470;2022-10-01T01:50:17;23;21;
47081;PMS5003;33066;49.296;14.470;2022-10-01T01:52:42;37;30;
47081;PMS5003;33066;49.296;14.470;2022-10-01T01:55:09;27;26;
47081;PMS5003;33066;49.296;14.470;2022-10-01T01:57:36;36;32;
47081;PMS5003;33066;49.296;14.470;2022-10-01T02:00:00;29;23;
47081;PMS5003;33066;49.296;14.470;2022-10-01T02:02:25;32;23;
47081;PMS5003;33066;49.296;14.470;2022-10-01T02:04:50;35;29;
47081;PMS5003;33066;49.296;14.470;2022-10-01T02:07:24;30;29;
47081;PMS5003;33066;49.296;14.470;2022-10-01T02:09:43;25;22;
47081;PMS5003;33066;49.296;14.470;2022-10-01T02:12:09;25;21;
47081;PMS5003;33066;49.296;14.470;2022-10-01T02:14:33;34;28;
47081;PMS5003;33066;49.296;14.470;2022-10-01T02:16:59;24;23;
47081;PMS5003;33066;49.296;14.470;2022-10-01T02:19:24;25;21;
47081;PMS5003;33066;49.296;14.470;2022-10-01T02:21:51;23;19;
47081;PMS5003;33066;49.296;14.470;2022-10-01T02:24:16;26;19;
47081;PMS5003;33066;49.296;14.470;2022-10-01T02:26:40;33;29;
47081;PMS5003;33066;49.296;14.470;2022-10-01T02:29:07;26;23;
47081;PMS5003;33066;49.296;14.470;2022-10-01T02:31:30;24;22;
47081;PMS5003;33066;49.296;14.470;2022-10-01T02:33:57;25;20;
47081;PMS5003;33066;49.296;14.470;2022-10-01T02:36:23;21;19;
47081;PMS5003;33066;49.296;14.470;2022-10-01T02:38:48;28;25;
47081;PMS5003;33066;49.296;14.470;2022-10-01T02:41:12;26;21;
47081;PMS5003;33066;49.296;14.470;2022-10-01T02:43:38;24;21;
47081;PMS5003;33066;49.296;14.470;2022-10-01T02:46:04;28;27;
47081;PMS5003;33066;49.296;14.470;2022-10-01T02:48:29;27;25;
47081;PMS5003;33066;49.296;14.470;2022-10-01T02:50:59;24;22;
47081;PMS5003;33066;49.296;14.470;2022-10-01T02:53:20;27;22;
47081;PMS5003;33066;49.296;14.470;2022-10-01T02:55:46;33;28;
47081;PMS5003;33066;49.296;14.470;2022-10-01T02:58:12;32;22;
47081;PMS5003;33066;49.296;14.470;2022-10-01T03:00:36;35;30;
47081;PMS5003;33066;49.296;14.470;2022-10-01T03:03:01;30;30;
47081;PMS5003;33066;49.296;14.470;2022-10-01T03:05:27;31;30;
47081;PMS5003;33066;49.296;14.470;2022-10-01T03:07:52;33;24;
47081;PMS5003;33066;49.296;14.470;2022-10-01T03:12:59;20;20;
47081;PMS5003;33066;49.296;14.470;2022-10-01T03:15:24;33;29;
47081;PMS5003;33066;49.296;14.470;2022-10-01T03:17:49;27;24;
47081;PMS5003;33066;49.296;14.470;2022-10-01T03:20:14;22;22;
47081;PMS5003;33066;49.296;14.470;2022-10-01T03:22:43;30;23;
47081;PMS5003;33066;49.296;14.470;2022-10-01T03:25:05;28;23;
47081;PMS5003;33066;49.296;14.470;2022-10-01T03:27:30;32;22;
47081;PMS5003;33066;49.296;14.470;2022-10-01T03:29:55;22;20;
47081;PMS5003;33066;49.296;14.470;2022-10-01T03:32:21;29;27;
47081;PMS5003;33066;49.296;14.470;2022-10-01T03:34:47;26;20;
47081;PMS5003;33066;49.296;14.470;2022-10-01T03:37:12;32;28;
47081;PMS5003;33066;49.296;14.470;2022-10-01T03:39:38;21;19;
47081;PMS5003;33066;49.296;14.470;2022-10-01T03:42:03;21;18;
47081;PMS5003;33066;49.296;14.470;2022-10-01T03:44:27;21;18;
47081;PMS5003;33066;49.296;14.470;2022-10-01T03:46:55;28;25;
47081;PMS5003;33066;49.296;14.470;2022-10-01T03:49:19;28;25;
47081;PMS5003;33066;49.296;14.470;2022-10-01T03:51:45;25;23;
47081;PMS5003;33066;49.296;14.470;2022-10-01T03:54:10;26;23;
47081;PMS5003;33066;49.296;14.470;2022-10-01T03:56:35;19;19;
47081;PMS5003;33066;49.296;14.470;2022-10-01T03:59:00;16;16;
47081;PMS5003;33066;49.296;14.470;2022-10-01T04:01:26;19;19;
47081;PMS5003;33066;49.296;14.470;2022-10-01T04:03:53;20;20;
47081;PMS5003;33066;49.296;14.470;2022-10-01T04:06:18;23;21;
47081;PMS5003;33066;49.296;14.470;2022-10-01T04:08:42;27;24;
47081;PMS5003;33066;49.296;14.470;2022-10-01T04:11:07;39;31;
47081;PMS5003;33066;49.296;14.470;2022-10-01T04:13:34;35;30;
47081;PMS5003;33066;49.296;14.470;2022-10-01T04:15:59;25;24;
47081;PMS5003;33066;49.296;14.470;2022-10-01T04:18:24;31;25;
47081;PMS5003;33066;49.296;14.470;2022-10-01T04:20:50;22;20;
47081;PMS5003;33066;49.296;14.470;2022-10-01T04:23:15;22;21;
47081;PMS5003;33066;49.296;14.470;2022-10-01T04:25:42;19;19;
47081;PMS5003;33066;49.296;14.470;2022-10-01T04:28:06;23;22;
47081;PMS5003;33066;49.296;14.470;2022-10-01T04:30:32;41;35;
47081;PMS5003;33066;49.296;14.470;2022-10-01T04:32:57;41;36;
47081;PMS5003;33066;49.296;14.470;2022-10-01T04:35:22;45;40;
47081;PMS5003;33066;49.296;14.470;2022-10-01T04:40:13;36;33;
47081;PMS5003;33066;49.296;14.470;2022-10-01T04:42:40;51;44;
47081;PMS5003;33066;49.296;14.470;2022-10-01T04:45:05;41;38;
47081;PMS5003;33066;49.296;14.470;2022-10-01T04:47:29;31;29;
47081;PMS5003;33066;49.296;14.470;2022-10-01T04:49:54;24;24;
47081;PMS5003;33066;49.296;14.470;2022-10-01T04:52:19;30;23;
47081;PMS5003;33066;49.296;14.470;2022-10-01T04:54:44;26;23;
47081;PMS5003;33066;49.296;14.470;2022-10-01T04:57:09;32;28;
47081;PMS5003;33066;49.296;14.470;2022-10-01T04:59:36;31;23;
47081;PMS5003;33066;49.296;14.470;2022-10-01T05:02:00;32;28;
47081;PMS5003;33066;49.296;14.470;2022-10-01T05:04:25;26;24;
47081;PMS5003;33066;49.296;14.470;2022-10-01T05:06:50;31;26;
47081;PMS5003;33066;49.296;14.470;2022-10-01T05:09:16;31;27;
47081;PMS5003;33066;49.296;14.470;2022-10-01T05:11:42;26;21;
47081;PMS5003;33066;49.296;14.470;2022-10-01T05:14:09;23;21;
47081;PMS5003;33066;49.296;14.470;2022-10-01T05:16:33;23;19;
47081;PMS5003;33066;49.296;14.470;2022-10-01T05:18:58;28;25;
47081;PMS5003;33066;49.296;14.470;2022-10-01T05:21:24;24;22;
47081;PMS5003;33066;49.296;14.470;2022-10-01T05:23:50;46;43;
47081;PMS5003;33066;49.296;14.470;2022-10-01T05:26:16;30;27;
47081;PMS5003;33066;49.296;14.470;2022-10-01T05:28:40;30;26;
47081;PMS5003;33066;49.296;14.470;2022-10-01T05:31:06;47;40;
47081;PMS5003;33066;49.296;14.470;2022-10-01T05:33:32;29;25;
47081;PMS5003;33066;49.296;14.470;2022-10-01T05:35:57;28;28;
47081;PMS5003;33066;49.296;14.470;2022-10-01T05:38:23;29;25;
47081;PMS5003;33066;49.296;14.470;2022-10-01T05:40:48;26;26;
47081;PMS5003;33066;49.296;14.470;2022-10-01T05:43:14;36;33;
47081;PMS5003;33066;49.296;14.470;2022-10-01T05:45:40;24;23;
47081;PMS5003;33066;49.296;14.470;2022-10-01T05:48:05;26;24;
47081;PMS5003;33066;49.296;14.470;2022-10-01T05:50:31;30;26;
47081;PMS5003;33066;49.296;14.470;2022-10-01T05:52:56;23;23;
47081;PMS5003;33066;49.296;14.470;2022-10-01T05:55:24;25;23;
47081;PMS5003;33066;49.296;14.470;2022-10-01T05:57:53;20;19;
47081;PMS5003;33066;49.296;14.470;2022-10-01T06:00:13;34;27;
47081;PMS5003;33066;49.296;14.470;2022-10-01T06:02:38;22;22;
47081;PMS5003;33066;49.296;14.470;2022-10-01T06:05:04;35;33;
47081;PMS5003;33066;49.296;14.470;2022-10-01T06:07:29;31;30;
47081;PMS5003;33066;49.296;14.470;2022-10-01T06:09:55;26;25;
47081;PMS5003;33066;49.296;14.470;2022-10-01T06:12:20;26;26;
47081;PMS5003;33066;49.296;14.470;2022-10-01T06:14:46;32;29;
47081;PMS5003;33066;49.296;14.470;2022-10-01T06:17:11;24;20;
47081;PMS5003;33066;49.296;14.470;2022-10-01T06:19:38;30;24;
47081;PMS5003;33066;49.296;14.470;2022-10-01T06:22:02;27;24;
47081;PMS5003;33066;49.296;14.470;2022-10-01T06:24:28;20;20;
47081;PMS5003;33066;49.296;14.470;2022-10-01T06:26:53;27;26;
47081;PMS5003;33066;49.296;14.470;2022-10-01T06:29:18;21;21;
47081;PMS5003;33066;49.296;14.470;2022-10-01T06:31:44;26;25;
47081;PMS5003;33066;49.296;14.470;2022-10-01T06:34:10;30;29;
47081;PMS5003;33066;49.296;14.470;2022-10-01T06:36:35;23;20;
47081;PMS5003;33066;49.296;14.470;2022-10-01T06:39:01;20;18;
47081;PMS5003;33066;49.296;14.470;2022-10-01T06:41:26;17;15;
47081;PMS5003;33066;49.296;14.470;2022-10-01T06:43:51;16;15;
47081;PMS5003;33066;49.296;14.470;2022-10-01T06:46:17;15;13;
47081;PMS5003;33066;49.296;14.470;2022-10-01T06:48:43;17;16;
47081;PMS5003;33066;49.296;14.470;2022-10-01T06:51:09;20;14;
47081;PMS5003;33066;49.296;14.470;2022-10-01T06:53:34;18;18;
47081;PMS5003;33066;49.296;14.470;2022-10-01T06:56:04;16;16;
47081;PMS5003;33066;49.296;14.470;2022-10-01T06:58:26;41;41;
47081;PMS5003;33066;49.296;14.470;2022-10-01T07:00:56;47;46;
47081;PMS5003;33066;49.296;14.470;2022-10-01T07:03:17;23;19;
47081;PMS5003;33066;49.296;14.470;2022-10-01T07:05:42;16;16;
47081;PMS5003;33066;49.296;14.470;2022-10-01T07:08:07;46;45;
47081;PMS5003;33066;49.296;14.470;2022-10-01T07:10:33;59;56;
47081;PMS5003;33066;49.296;14.470;2022-10-01T07:15:24;50;47;
47081;PMS5003;33066;49.296;14.470;2022-10-01T07:17:50;57;54;
47081;PMS5003;33066;49.296;14.470;2022-10-01T07:20:16;57;55;
47081;PMS5003;33066;49.296;14.470;2022-10-01T07:22:42;23;19;
47081;PMS5003;33066;49.296;14.470;2022-10-01T07:25:06;37;37;
47081;PMS5003;33066;49.296;14.470;2022-10-01T07:27:31;34;32;
47081;PMS5003;33066;49.296;14.470;2022-10-01T07:29:56;51;51;
47081;PMS5003;33066;49.296;14.470;2022-10-01T07:32:22;42;39;
47081;PMS5003;33066;49.296;14.470;2022-10-01T07:34:48;39;37;
47081;PMS5003;33066;49.296;14.470;2022-10-01T07:37:12;27;25;
47081;PMS5003;33066;49.296;14.470;2022-10-01T07:39:39;23;23;
47081;PMS5003;33066;49.296;14.470;2022-10-01T07:42:04;19;19;
47081;PMS5003;33066;49.296;14.470;2022-10-01T07:44:29;16;15;
47081;PMS5003;33066;49.296;14.470;2022-10-01T07:46:55;15;15;
47081;PMS5003;33066;49.296;14.470;2022-10-01T07:49:20;21;20;
47081;PMS5003;33066;49.296;14.470;2022-10-01T07:51:48;27;26;
47081;PMS5003;33066;49.296;14.470;2022-10-01T07:54:10;26;23;
47081;PMS5003;33066;49.296;14.470;2022-10-01T07:56:36;27;27;
47081;PMS5003;33066;49.296;14.470;2022-10-01T07:59:02;27;22;
47081;PMS5003;33066;49.296;14.470;2022-10-01T08:01:28;29;26;
47081;PMS5003;33066;49.296;14.470;2022-10-01T08:03:53;22;22;
47081;PMS5003;33066;49.296;14.470;2022-10-01T08:06:20;26;23;
47081;PMS5003;33066;49.296;14.470;2022-10-01T08:08:45;27;22;
47081;PMS5003;33066;49.296;14.470;2022-10-01T08:11:10;23;23;
47081;PMS5003;33066;49.296;14.470;2022-10-01T08:13:37;24;23;
47081;PMS5003;33066;49.296;14.470;2022-10-01T08:16:03;24;24;
47081;PMS5003;33066;49.296;14.470;2022-10-01T08:18:27;14;14;
47081;PMS5003;33066;49.296;14.470;2022-10-01T08:20:52;10;10;
47081;PMS5003;33066;49.296;14.470;2022-10-01T08:23:18;15;13;
47081;PMS5003;33066;49.296;14.470;2022-10-01T08:25:44;13;13;
47081;PMS5003;33066;49.296;14.470;2022-10-01T08:28:10;22;16;
47081;PMS5003;33066;49.296;14.470;2022-10-01T08:30:35;16;16;
47081;PMS5003;33066;49.296;14.470;2022-10-01T08:33:00;20;18;
47081;PMS5003;33066;49.296;14.470;2022-10-01T08:35:28;19;13;
47081;PMS5003;33066;49.296;14.470;2022-10-01T08:37:52;14;12;
47081;PMS5003;33066;49.296;14.470;2022-10-01T08:40:20;20;18;
47081;PMS5003;33066;49.296;14.470;2022-10-01T08:42:47;11;10;
47081;PMS5003;33066;49.296;14.470;2022-10-01T08:45:11;12;12;
47081;PMS5003;33066;49.296;14.470;2022-10-01T08:47:34;13;12;
47081;PMS5003;33066;49.296;14.470;2022-10-01T08:50:01;14;14;
47081;PMS5003;33066;49.296;14.470;2022-10-01T08:52:27;11;11;
47081;PMS5003;33066;49.296;14.470;2022-10-01T08:54:52;19;16;
47081;PMS5003;33066;49.296;14.470;2022-10-01T08:57:20;12;12;
47081;PMS5003;33066;49.296;14.470;2022-10-01T08:59:42;14;13;
47081;PMS5003;33066;49.296;14.470;2022-10-01T09:04:32;10;10;
47081;PMS5003;33066;49.296;14.470;2022-10-01T09:06:59;7;7;
47081;PMS5003;33066;49.296;14.470;2022-10-01T09:09:27;5;5;
47081;PMS5003;33066;49.296;14.470;2022-10-01T09:11:53;7;6;
47081;PMS5003;33066;49.296;14.470;2022-10-01T09:14:18;9;9;
47081;PMS5003;33066;49.296;14.470;2022-10-01T09:16:40;8;6;
47081;PMS5003;33066;49.296;14.470;2022-10-01T09:19:08;10;6;
47081;PMS5003;33066;49.296;14.470;2022-10-01T09:21:34;6;6;
47081;PMS5003;33066;49.296;14.470;2022-10-01T09:23:57;5;5;
47081;PMS5003;33066;49.296;14.470;2022-10-01T09:26:19;5;5;
47081;PMS5003;33066;49.296;14.470;2022-10-01T09:28:44;8;7;
47081;PMS5003;33066;49.296;14.470;2022-10-01T09:31:11;8;5;
47081;PMS5003;33066;49.296;14.470;2022-10-01T09:33:35;11;9;
47081;PMS5003;33066;49.296;14.470;2022-10-01T09:36:01;6;6;
47081;PMS5003;33066;49.296;14.470;2022-10-01T09:38:28;6;6;
47081;PMS5003;33066;49.296;14.470;2022-10-01T09:40:50;7;6;
47081;PMS5003;33066;49.296;14.470;2022-10-01T09:43:15;6;6;
47081;PMS5003;33066;49.296;14.470;2022-10-01T09:45:41;8;6;
47081;PMS5003;33066;49.296;14.470;2022-10-01T09:50:37;7;7;
47081;PMS5003;33066;49.296;14.470;2022-10-01T09:52:56;6;6;
47081;PMS5003;33066;49.296;14.470;2022-10-01T09:55:25;7;6;
47081;PMS5003;33066;49.296;14.470;2022-10-01T09:57:47;8;7;
47081;PMS5003;33066;49.296;14.470;2022-10-01T10:00:16;6;6;
47081;PMS5003;33066;49.296;14.470;2022-10-01T10:02:38;7;7;
47081;PMS5003;33066;49.296;14.470;2022-10-01T10:05:03;6;5;
47081;PMS5003;33066;49.296;14.470;2022-10-01T10:07:28;10;7;
47081;PMS5003;33066;49.296;14.470;2022-10-01T10:09:53;10;7;
47081;PMS5003;33066;49.296;14.470;2022-10-01T10:12:24;7;6;
47081;PMS5003;33066;49.296;14.470;2022-10-01T10:14:43;3;3;
47081;PMS5003;33066;49.296;14.470;2022-10-01T10:17:10;4;3;
47081;PMS5003;33066;49.296;14.470;2022-10-01T10:19:33;3;3;
47081;PMS5003;33066;49.296;14.470;2022-10-01T10:24:25;1;1;
47081;PMS5003;33066;49.296;14.470;2022-10-01T10:26:51;4;3;
47081;PMS5003;33066;49.296;14.470;2022-10-01T10:31:41;3;3;
47081;PMS5003;33066;49.296;14.470;2022-10-01T10:34:10;2;2;
47081;PMS5003;33066;49.296;14.470;2022-10-01T10:36:31;3;3;
47081;PMS5003;33066;49.296;14.470;2022-10-01T10:38:55;3;3;
47081;PMS5003;33066;49.296;14.470;2022-10-01T10:41:21;3;3;
47081;PMS5003;33066;49.296;14.470;2022-10-01T10:43:46;2;2;
47081;PMS5003;33066;49.296;14.470;2022-10-01T10:46:11;2;2;
47081;PMS5003;33066;49.296;14.470;2022-10-01T10:48:37;4;4;
47081;PMS5003;33066;49.296;14.470;2022-10-01T10:51:02;7;2;
47081;PMS5003;33066;49.296;14.470;2022-10-01T10:53:27;4;4;
47081;PMS5003;33066;49.296;14.470;2022-10-01T10:55:53;5;3;
47081;PMS5003;33066;49.296;14.470;2022-10-01T10:58:17;4;4;
47081;PMS5003;33066;49.296;14.470;2022-10-01T11:00:42;5;5;
47081;PMS5003;33066;49.296;14.470;2022-10-01T11:03:12;5;3;
47081;PMS5003;33066;49.296;14.470;2022-10-01T11:05:33;5;4;
47081;PMS5003;33066;49.296;14.470;2022-10-01T11:07:58;3;3;
47081;PMS5003;33066;49.296;14.470;2022-10-01T11:10:25;2;2;
47081;PMS5003;33066;49.296;14.470;2022-10-01T11:12:54;4;3;
47081;PMS5003;33066;49.296;14.470;2022-10-01T11:15:17;4;4;
47081;PMS5003;33066;49.296;14.470;2022-10-01T11:20:10;5;5;
47081;PMS5003;33066;49.296;14.470;2022-10-01T11:22:34;2;2;
47081;PMS5003;33066;49.296;14.470;2022-10-01T11:25:04;9;5;
47081;PMS5003;33066;49.296;14.470;2022-10-01T11:27:21;5;4;
47081;PMS5003;33066;49.296;14.470;2022-10-01T11:29:47;6;3;
47081;PMS5003;33066;49.296;14.470;2022-10-01T11:32:12;7;7;
47081;PMS5003;33066;49.296;14.470;2022-10-01T11:34:47;6;5;
47081;PMS5003;33066;49.296;14.470;2022-10-01T11:37:01;5;5;
47081;PMS5003;33066;49.296;14.470;2022-10-01T11:39:26;7;5;
47081;PMS5003;33066;49.296;14.470;2022-10-01T11:41:51;5;5;
47081;PMS5003;33066;49.296;14.470;2022-10-01T11:44:18;5;4;
47081;PMS5003;33066;49.296;14.470;2022-10-01T11:46:45;6;5;
47081;PMS5003;33066;49.296;14.470;2022-10-01T11:51:33;4;4;
47081;PMS5003;33066;49.296;14.470;2022-10-01T11:53:57;5;5;
47081;PMS5003;33066;49.296;14.470;2022-10-01T11:56:23;6;5;
47081;PMS5003;33066;49.296;14.470;2022-10-01T11:58:49;4;4;
47081;PMS5003;33066;49.296;14.470;2022-10-01T12:01:14;4;4;
47081;PMS5003;33066;49.296;14.470;2022-10-01T12:06:03;7;5;
47081;PMS5003;33066;49.296;14.470;2022-10-01T12:08:29;6;5;
47081;PMS5003;33066;49.296;14.470;2022-10-01T12:10:54;4;4;
47081;PMS5003;33066;49.296;14.470;2022-10-01T12:13:20;6;5;
47081;PMS5003;33066;49.296;14.470;2022-10-01T12:15:46;3;3;
47081;PMS5003;33066;49.296;14.470;2022-10-01T12:18:12;8;6;
47081;PMS5003;33066;49.296;14.470;2022-10-01T12:20:34;5;5;
47081;PMS5003;33066;49.296;14.470;2022-10-01T12:22:59;6;5;
47081;PMS5003;33066;49.296;14.470;2022-10-01T12:25:26;11;7;
47081;PMS5003;33066;49.296;14.470;2022-10-01T12:27:53;6;5;
47081;PMS5003;33066;49.296;14.470;2022-10-01T12:30:15;5;5;
47081;PMS5003;33066;49.296;14.470;2022-10-01T12:32:45;7;6;
47081;PMS5003;33066;49.296;14.470;2022-10-01T12:35:09;7;5;
47081;PMS5003;33066;49.296;14.470;2022-10-01T12:37:33;9;8;
47081;PMS5003;33066;49.296;14.470;2022-10-01T12:40:00;6;5;
47081;PMS5003;33066;49.296;14.470;2022-10-01T12:42:28;12;10;
47081;PMS5003;33066;49.296;14.470;2022-10-01T12:44:49;5;4;
47081;PMS5003;33066;49.296;14.470;2022-10-01T12:47:18;8;7;
47081;PMS5003;33066;49.296;14.470;2022-10-01T12:49:40;5;5;
47081;PMS5003;33066;49.296;14.470;2022-10-01T12:52:06;6;5;
47081;PMS5003;33066;49.296;14.470;2022-10-01T12:54:35;6;6;
47081;PMS5003;33066;49.296;14.470;2022-10-01T12:56:54;7;6;
47081;PMS5003;33066;49.296;14.470;2022-10-01T13:01:51;20;16;
47081;PMS5003;33066;49.296;14.470;2022-10-01T13:06:39;17;17;
47081;PMS5003;33066;49.296;14.470;2022-10-01T13:09:05;13;10;
47081;PMS5003;33066;49.296;14.470;2022-10-01T13:11:34;10;8;
47081;PMS5003;33066;49.296;14.470;2022-10-01T13:13:52;13;12;
47081;PMS5003;33066;49.296;14.470;2022-10-01T13:16:19;14;14;
47081;PMS5003;33066;49.296;14.470;2022-10-01T13:18:45;18;17;
47081;PMS5003;33066;49.296;14.470;2022-10-01T13:21:10;7;7;
47081;PMS5003;33066;49.296;14.470;2022-10-01T13:23:37;10;10;
47081;PMS5003;33066;49.296;14.470;2022-10-01T13:26:00;6;4;
47081;PMS5003;33066;49.296;14.470;2022-10-01T13:28:25;5;5;
47081;PMS5003;33066;49.296;14.470;2022-10-01T13:30:52;3;3;
47081;PMS5003;33066;49.296;14.470;2022-10-01T13:33:20;5;5;
47081;PMS5003;33066;49.296;14.470;2022-10-01T13:35:51;7;6;
47081;PMS5003;33066;49.296;14.470;2022-10-01T13:40:32;6;6;
47081;PMS5003;33066;49.296;14.470;2022-10-01T13:42:58;7;7;
47081;PMS5003;33066;49.296;14.470;2022-10-01T13:45:27;8;7;
47081;PMS5003;33066;49.296;14.470;2022-10-01T13:47:48;5;4;
47081;PMS5003;33066;49.296;14.470;2022-10-01T13:50:19;4;4;
47081;PMS5003;33066;49.296;14.470;2022-10-01T13:52:39;3;3;
47081;PMS5003;33066;49.296;14.470;2022-10-01T13:55:04;3;3;
47081;PMS5003;33066;49.296;14.470;2022-10-01T13:57:31;8;8;
47081;PMS5003;33066;49.296;14.470;2022-10-01T13:59:59;23;20;
47081;PMS5003;33066;49.296;14.470;2022-10-01T14:02:26;4;4;
47081;PMS5003;33066;49.296;14.470;2022-10-01T14:04:44;5;5;
47081;PMS5003;33066;49.296;14.470;2022-10-01T14:07:11;25;25;
47081;PMS5003;33066;49.296;14.470;2022-10-01T14:09:35;33;31;
47081;PMS5003;33066;49.296;14.470;2022-10-01T14:12:01;27;27;
47081;PMS5003;33066;49.296;14.470;2022-10-01T14:14:27;16;16;
47081;PMS5003;33066;49.296;14.470;2022-10-01T14:16:52;17;17;
47081;PMS5003;33066;49.296;14.470;2022-10-01T14:19:17;20;18;
47081;PMS5003;33066;49.296;14.470;2022-10-01T14:21:45;2;2;
47081;PMS5003;33066;49.296;14.470;2022-10-01T14:24:12;3;1;
47081;PMS5003;33066;49.296;14.470;2022-10-01T14:26:35;2;2;
47081;PMS5003;33066;49.296;14.470;2022-10-01T14:29:04;2;2;
47081;PMS5003;33066;49.296;14.470;2022-10-01T14:31:27;2;2;
47081;PMS5003;33066;49.296;14.470;2022-10-01T14:33:52;1;1;
47081;PMS5003;33066;49.296;14.470;2022-10-01T14:36:16;18;18;
47081;PMS5003;33066;49.296;14.470;2022-10-01T14:38:44;63;51;
47081;PMS5003;33066;49.296;14.470;2022-10-01T14:41:13;0;0;
47081;PMS5003;33066;49.296;14.470;2022-10-01T14:43:32;1;1;
47081;PMS5003;33066;49.296;14.470;2022-10-01T14:45:56;1;1;
47081;PMS5003;33066;49.296;14.470;2022-10-01T14:48:21;2;2;
47081;PMS5003;33066;49.296;14.470;2022-10-01T14:50:48;16;16;
47081;PMS5003;33066;49.296;14.470;2022-10-01T14:53:12;2;2;
47081;PMS5003;33066;49.296;14.470;2022-10-01T14:55:37;6;6;
47081;PMS5003;33066;49.296;14.470;2022-10-01T14:58:02;3;3;
47081;PMS5003;33066;49.296;14.470;2022-10-01T15:00:28;1;1;
47081;PMS5003;33066;49.296;14.470;2022-10-01T15:05:20;1;1;
47081;PMS5003;33066;49.296;14.470;2022-10-01T15:07:44;3;3;
47081;PMS5003;33066;49.296;14.470;2022-10-01T15:10:11;8;8;
47081;PMS5003;33066;49.296;14.470;2022-10-01T15:12:37;5;4;
47081;PMS5003;33066;49.296;14.470;2022-10-01T15:14:59;5;4;
47081;PMS5003;33066;49.296;14.470;2022-10-01T15:17:25;4;3;
47081;PMS5003;33066;49.296;14.470;2022-10-01T15:19:50;3;3;
47081;PMS5003;33066;49.296;14.470;2022-10-01T15:22:15;2;2;
47081;PMS5003;33066;49.296;14.470;2022-10-01T15:24:42;5;3;
47081;PMS5003;33066;49.296;14.470;2022-10-01T15:27:07;5;5;
47081;PMS5003;33066;49.296;14.470;2022-10-01T15:29:30;2;2;
47081;PMS5003;33066;49.296;14.470;2022-10-01T15:31:55;1;1;
47081;PMS5003;33066;49.296;14.470;2022-10-01T15:34:21;1;1;
47081;PMS5003;33066;49.296;14.470;2022-10-01T15:36:47;5;5;
47081;PMS5003;33066;49.296;14.470;2022-10-01T15:39:21;5;3;
47081;PMS5003;33066;49.296;14.470;2022-10-01T15:41:37;3;3;
47081;PMS5003;33066;49.296;14.470;2022-10-01T15:44:03;5;5;
47081;PMS5003;33066;49.296;14.470;2022-10-01T15:46:28;5;5;
47081;PMS5003;33066;49.296;14.470;2022-10-01T15:51:22;40;37;
47081;PMS5003;33066;49.296;14.470;2022-10-01T15:53:46;3;3;
47081;PMS5003;33066;49.296;14.470;2022-10-01T15:56:11;6;3;
47081;PMS5003;33066;49.296;14.470;2022-10-01T15:58:35;2;2;
47081;PMS5003;33066;49.296;14.470;2022-10-01T16:01:04;2;2;
47081;PMS5003;33066;49.296;14.470;2022-10-01T16:03:28;2;2;
47081;PMS5003;33066;49.296;14.470;2022-10-01T16:05:51;5;3;
47081;PMS5003;33066;49.296;14.470;2022-10-01T16:08:18;14;12;
47081;PMS5003;33066;49.296;14.470;2022-10-01T16:10:41;7;7;
47081;PMS5003;33066;49.296;14.470;2022-10-01T16:15:31;6;6;
47081;PMS5003;33066;49.296;14.470;2022-10-01T16:17:58;8;7;
47081;PMS5003;33066;49.296;14.470;2022-10-01T16:20:31;12;12;
47081;PMS5003;33066;49.296;14.470;2022-10-01T16:22:47;13;11;
47081;PMS5003;33066;49.296;14.470;2022-10-01T16:27:44;19;18;
47081;PMS5003;33066;49.296;14.470;2022-10-01T16:30:08;19;19;
47081;PMS5003;33066;49.296;14.470;2022-10-01T16:32:29;28;23;
47081;PMS5003;33066;49.296;14.470;2022-10-01T16:37:21;185;156;
47081;PMS5003;33066;49.296;14.470;2022-10-01T16:39:46;5;5;
47081;PMS5003;33066;49.296;14.470;2022-10-01T16:42:17;11;11;
47081;PMS5003;33066;49.296;14.470;2022-10-01T16:44:37;13;12;
47081;PMS5003;33066;49.296;14.470;2022-10-01T16:47:03;9;9;